createdAt,value
2018-06-04T00:01:27.663Z,20.73
2018-06-04T00:03:56.317Z,21.83
2018-06-04T00:06:24.990Z,19.77
2018-06-04T00:08:53.610Z,15.70
2018-06-04T00:11:22.272Z,18.07
2018-06-04T00:13:51.208Z,20.90
2018-06-04T00:16:19.860Z,9.67
2018-06-04T00:18:48.548Z,17.87
2018-06-04T00:21:17.255Z,15.13
2018-06-04T00:23:45.849Z,21.83
2018-06-04T00:26:14.542Z,24.73
2018-06-04T00:28:43.201Z,29.37
2018-06-04T00:31:11.868Z,29.03
2018-06-04T00:33:40.461Z,27.53
2018-06-04T00:36:09.169Z,28.63
2018-06-04T00:38:37.827Z,27.43
2018-06-04T00:41:07.185Z,24.80
2018-06-04T00:43:35.800Z,22.60
2018-06-04T00:46:04.504Z,24.50
2018-06-04T00:48:33.219Z,23.87
2018-06-04T00:51:01.863Z,25.30
2018-06-04T00:53:30.573Z,15.33
2018-06-04T00:56:10.332Z,19.03
2018-06-04T00:58:38.987Z,22.90
2018-06-04T01:01:07.574Z,23.27
2018-06-04T01:03:36.220Z,15.60
2018-06-04T01:06:04.818Z,19.27
2018-06-04T01:08:33.561Z,17.70
2018-06-04T01:11:02.226Z,17.00
2018-06-04T01:13:30.897Z,21.77
2018-06-04T01:15:59.483Z,23.13
2018-06-04T01:18:28.177Z,34.37
2018-06-04T01:20:57.105Z,21.17
2018-06-04T01:23:25.755Z,30.37
2018-06-04T01:25:54.316Z,24.00
2018-06-04T01:28:22.956Z,30.77
2018-06-04T01:30:51.622Z,30.57
2018-06-04T01:33:20.285Z,27.57
2018-06-04T01:35:48.878Z,24.03
2018-06-04T01:38:17.457Z,26.50
2018-06-04T01:40:46.005Z,24.27
2018-06-04T01:43:14.617Z,26.00
2018-06-04T01:45:43.213Z,33.00
2018-06-04T01:48:11.913Z,29.27
2018-06-04T01:50:40.606Z,35.23
2018-06-04T01:53:09.317Z,27.50
2018-06-04T01:55:38.196Z,25.90
2018-06-04T01:58:06.862Z,26.20
2018-06-04T02:00:35.570Z,35.50
2018-06-04T02:03:04.250Z,35.77
2018-06-04T02:05:32.923Z,32.57
2018-06-04T02:08:01.597Z,34.07
2018-06-04T02:10:30.230Z,32.80
2018-06-04T02:12:58.918Z,29.60
2018-06-04T02:15:42.842Z,25.67
2018-06-04T02:18:11.521Z,22.37
2018-06-04T02:20:40.196Z,20.40
2018-06-04T02:23:08.878Z,23.33
2018-06-04T02:25:37.628Z,26.20
2018-06-04T02:28:06.344Z,28.10
2018-06-04T02:30:49.816Z,18.90
2018-06-04T02:33:19.062Z,17.13
2018-06-04T02:35:47.657Z,17.97
2018-06-04T02:38:16.279Z,25.90
2018-06-04T02:40:44.943Z,33.93
2018-06-04T02:43:13.557Z,35.47
2018-06-04T02:45:42.212Z,31.63
2018-06-04T02:48:11.654Z,27.97
2018-06-04T02:50:40.322Z,34.87
2018-06-04T02:53:09.047Z,36.70
2018-06-04T02:55:37.618Z,39.40
2018-06-04T02:58:06.239Z,38.97
2018-06-04T03:00:34.833Z,27.53
2018-06-04T03:03:03.411Z,35.17
2018-06-04T03:05:32.161Z,34.10
2018-06-04T03:08:00.910Z,31.43
2018-06-04T03:10:29.602Z,33.63
2018-06-04T03:12:58.200Z,32.77
2018-06-04T03:15:27.400Z,30.97
2018-06-04T03:17:56.004Z,34.40
2018-06-04T03:20:24.566Z,35.83
2018-06-04T03:22:53.222Z,39.53
2018-06-04T03:25:21.815Z,40.37
2018-06-04T03:27:50.415Z,39.90
2018-06-04T03:30:19.009Z,40.83
2018-06-04T03:32:47.746Z,42.47
2018-06-04T03:35:16.356Z,41.27
2018-06-04T03:37:45.014Z,39.63
2018-06-04T03:40:13.585Z,39.50
2018-06-04T03:42:42.246Z,41.17
2018-06-04T03:45:10.879Z,41.83
2018-06-04T03:47:39.480Z,29.00
2018-06-04T03:50:08.209Z,27.77
2018-06-04T03:52:36.905Z,40.10
2018-06-04T03:55:06.506Z,39.77
2018-06-04T03:57:35.687Z,40.90
2018-06-04T04:00:05.011Z,38.27
2018-06-04T04:02:33.602Z,40.43
2018-06-04T04:05:02.341Z,39.60
2018-06-04T04:07:30.926Z,40.23
2018-06-04T04:09:59.645Z,34.20
2018-06-04T04:12:28.435Z,38.80
2018-06-04T04:14:57.037Z,22.30
2018-06-04T04:17:25.647Z,22.63
2018-06-04T04:19:54.260Z,22.20
2018-06-04T04:22:22.875Z,36.57
2018-06-04T04:24:51.544Z,34.90
2018-06-04T04:27:20.207Z,33.27
2018-06-04T04:29:48.771Z,31.97
2018-06-04T04:32:17.373Z,31.53
2018-06-04T04:34:46.077Z,32.10
2018-06-04T04:37:14.689Z,33.97
2018-06-04T04:39:43.352Z,34.83
2018-06-04T04:42:12.009Z,35.23
2018-06-04T04:44:40.582Z,36.33
2018-06-04T04:47:09.167Z,35.73
2018-06-04T04:49:37.745Z,36.27
2018-06-04T04:52:06.342Z,38.17
2018-06-04T04:55:02.914Z,37.07
2018-06-04T04:57:31.605Z,38.73
2018-06-04T05:00:00.221Z,37.00
2018-06-04T05:02:28.973Z,36.83
2018-06-04T05:04:57.623Z,37.27
2018-06-04T05:07:26.223Z,40.00
2018-06-04T05:09:54.915Z,38.80
2018-06-04T05:12:23.628Z,40.40
2018-06-04T05:14:52.294Z,39.53
2018-06-04T05:17:21.024Z,40.93
2018-06-04T05:19:49.677Z,37.63
2018-06-04T05:22:18.394Z,39.20
2018-06-04T05:24:47.029Z,40.23
2018-06-04T05:27:15.682Z,39.07
2018-06-04T05:29:44.410Z,40.00
2018-06-04T05:32:13.215Z,40.83
2018-06-04T05:34:41.894Z,41.57
2018-06-04T05:37:10.492Z,40.73
2018-06-04T05:39:39.098Z,40.33
2018-06-04T05:42:07.736Z,40.30
2018-06-04T05:44:36.434Z,36.83
2018-06-04T05:47:05.138Z,36.73
2018-06-04T05:49:33.809Z,37.77
2018-06-04T05:52:02.491Z,37.20
2018-06-04T05:54:31.086Z,37.33
2018-06-04T05:56:59.745Z,39.87
2018-06-04T05:59:28.414Z,37.73
2018-06-04T06:01:57.071Z,38.97
2018-06-04T06:04:25.922Z,37.93
2018-06-04T06:06:58.694Z,39.47
2018-06-04T06:09:27.274Z,38.03
2018-06-04T06:11:55.962Z,39.90
2018-06-04T06:14:24.660Z,40.47
2018-06-04T06:16:53.217Z,37.27
2018-06-04T06:19:21.926Z,36.63
2018-06-04T06:21:50.540Z,36.57
2018-06-04T06:24:19.136Z,37.67
2018-06-04T06:26:47.888Z,37.77
2018-06-04T06:29:16.592Z,35.40
2018-06-04T06:31:45.149Z,37.87
2018-06-04T06:34:13.853Z,35.60
2018-06-04T06:36:42.526Z,34.67
2018-06-04T06:39:11.259Z,36.50
2018-06-04T06:41:39.862Z,36.20
2018-06-04T06:44:08.582Z,36.13
2018-06-04T06:46:37.170Z,38.83
2018-06-04T06:49:05.817Z,36.33
2018-06-04T06:51:34.675Z,36.57
2018-06-04T06:54:03.337Z,36.83
2018-06-04T06:56:32.021Z,36.47
2018-06-04T06:59:00.593Z,37.40
2018-06-04T07:01:29.336Z,36.47
2018-06-04T07:03:57.954Z,37.20
2018-06-04T07:06:26.562Z,37.47
2018-06-04T07:08:55.173Z,33.60
2018-06-04T07:11:23.790Z,36.27
2018-06-04T07:13:52.397Z,35.70
2018-06-04T07:16:20.977Z,33.37
2018-06-04T07:18:49.677Z,34.20
2018-06-04T07:21:18.241Z,35.67
2018-06-04T07:23:46.936Z,34.30
2018-06-04T07:26:15.524Z,35.30
2018-06-04T07:28:44.181Z,34.67
2018-06-04T07:31:12.797Z,34.23
2018-06-04T07:33:41.424Z,34.73
2018-06-04T07:36:11.142Z,34.87
2018-06-04T07:38:41.098Z,35.13
2018-06-04T07:41:09.704Z,33.67
2018-06-04T07:43:38.293Z,34.17
2018-06-04T07:46:17.013Z,35.80
2018-06-04T07:48:46.320Z,32.67
2018-06-04T07:51:14.932Z,33.73
2018-06-04T07:53:43.722Z,33.27
2018-06-04T07:56:12.287Z,32.00
2018-06-04T07:58:40.969Z,32.70
2018-06-04T08:01:09.861Z,33.17
2018-06-04T08:03:38.612Z,32.00
2018-06-04T08:06:07.264Z,32.03
2018-06-04T08:08:35.879Z,32.70
2018-06-04T08:11:04.537Z,32.43
2018-06-04T08:13:33.237Z,31.37
2018-06-04T08:16:01.952Z,33.70
2018-06-04T08:18:30.569Z,34.13
2018-06-04T08:20:59.174Z,35.23
2018-06-04T08:23:27.806Z,33.73
2018-06-04T08:25:56.483Z,32.87
2018-06-04T08:28:25.265Z,31.90
2018-06-04T08:30:53.842Z,33.70
2018-06-04T08:33:23.179Z,32.27
2018-06-04T08:35:51.815Z,35.40
2018-06-04T08:38:20.499Z,35.40
2018-06-04T08:40:49.118Z,34.53
2018-06-04T08:43:17.717Z,35.67
2018-06-04T08:45:46.518Z,35.40
2018-06-04T08:48:15.253Z,31.10
2018-06-04T08:50:43.941Z,33.17
2018-06-04T08:53:12.538Z,35.33
2018-06-04T08:55:41.133Z,34.57
2018-06-04T08:58:09.712Z,35.67
2018-06-04T09:00:38.388Z,32.13
2018-06-04T09:03:07.062Z,30.40
2018-06-04T09:05:35.749Z,31.83
2018-06-04T09:08:09.088Z,31.03
2018-06-04T09:10:37.827Z,32.03
2018-06-04T09:13:06.962Z,30.67
2018-06-04T09:15:35.625Z,32.43
2018-06-04T09:18:04.277Z,32.40
2018-06-04T09:20:32.972Z,30.57
2018-06-04T09:23:01.677Z,30.23
2018-06-04T09:25:30.253Z,25.00
2018-06-04T09:27:58.946Z,28.20
2018-06-04T09:30:27.628Z,26.10
2018-06-04T09:32:56.317Z,28.50
2018-06-04T09:35:24.898Z,27.60
2018-06-04T09:37:53.589Z,26.13
2018-06-04T09:40:22.263Z,26.27
2018-06-04T09:42:50.961Z,28.03
2018-06-04T09:45:19.649Z,27.77
2018-06-04T09:47:48.364Z,27.97
2018-06-04T09:50:16.971Z,25.27
2018-06-04T09:53:21.153Z,27.13
2018-06-04T09:55:49.835Z,25.33
2018-06-04T09:58:18.498Z,27.57
2018-06-04T10:00:47.236Z,28.03
2018-06-04T10:03:23.890Z,24.87
2018-06-04T10:05:52.547Z,21.53
2018-06-04T10:08:22.251Z,22.73
2018-06-04T10:10:50.956Z,25.83
2018-06-04T10:13:19.650Z,26.20
2018-06-04T10:15:48.349Z,21.77
2018-06-04T10:18:17.114Z,27.30
2018-06-04T10:20:45.776Z,27.57
2018-06-04T10:23:14.482Z,26.73
2018-06-04T10:25:43.194Z,25.57
2018-06-04T10:28:11.825Z,27.57
2018-06-04T10:30:40.448Z,28.07
2018-06-04T10:33:09.855Z,26.57
2018-06-04T10:35:38.531Z,27.77
2018-06-04T10:38:07.134Z,24.87
2018-06-04T10:40:35.824Z,25.43
2018-06-04T10:43:04.422Z,23.83
2018-06-04T10:45:33.019Z,25.37
2018-06-04T10:48:01.662Z,25.63
2018-06-04T10:50:30.385Z,22.27
2018-06-04T10:53:00.027Z,23.40
2018-06-04T10:55:28.686Z,23.20
2018-06-04T10:57:58.146Z,24.27
2018-06-04T11:00:26.847Z,25.37
2018-06-04T11:02:55.498Z,25.50
2018-06-04T11:05:24.190Z,24.97
2018-06-04T11:07:52.904Z,27.93
2018-06-04T11:10:22.197Z,27.07
2018-06-04T11:12:50.861Z,27.07
2018-06-04T11:15:19.529Z,27.33
2018-06-04T11:17:48.374Z,24.93
2018-06-04T11:20:17.134Z,22.97
2018-06-04T11:22:45.838Z,23.77
2018-06-04T11:25:15.671Z,23.53
2018-06-04T11:27:44.276Z,25.07
2018-06-04T11:30:12.926Z,25.00
2018-06-04T11:32:41.512Z,22.97
2018-06-04T11:35:10.100Z,24.13
2018-06-04T11:37:38.713Z,22.77
2018-06-04T11:40:07.431Z,20.53
2018-06-04T11:42:36.027Z,23.27
2018-06-04T11:45:04.831Z,22.20
2018-06-04T11:47:33.490Z,23.43
2018-06-04T11:50:02.240Z,21.70
2018-06-04T11:52:30.855Z,23.97
2018-06-04T11:54:59.530Z,23.57
2018-06-04T11:57:28.232Z,19.93
2018-06-04T11:59:56.839Z,20.50
2018-06-04T12:02:25.515Z,19.20
2018-06-04T12:04:54.137Z,19.20
2018-06-04T12:07:22.778Z,16.57
2018-06-04T12:09:51.460Z,15.20
2018-06-04T12:12:20.256Z,15.67
2018-06-04T12:14:48.861Z,17.80
2018-06-04T12:17:17.498Z,15.53
2018-06-04T12:19:46.219Z,15.90
2018-06-04T12:22:14.869Z,17.57
2018-06-04T12:24:43.444Z,16.70
2018-06-04T12:27:12.168Z,15.80
2018-06-04T12:29:40.819Z,14.73
2018-06-04T12:32:09.414Z,14.43
2018-06-04T12:34:38.122Z,15.77
2018-06-04T12:37:06.770Z,14.83
2018-06-04T12:39:35.352Z,13.53
2018-06-04T12:42:03.987Z,17.37
2018-06-04T12:44:32.570Z,17.63
2018-06-04T12:47:01.229Z,17.37
2018-06-04T12:49:29.870Z,17.83
2018-06-04T12:51:58.612Z,17.53
2018-06-04T12:54:27.317Z,16.00
2018-06-04T12:56:55.934Z,13.60
2018-06-04T12:59:24.598Z,13.37
2018-06-04T13:01:53.257Z,15.70
2018-06-04T13:04:21.926Z,15.70
2018-06-04T13:06:50.629Z,14.73
2018-06-04T13:09:19.284Z,14.97
2018-06-04T13:11:47.990Z,14.10
2018-06-04T13:14:16.650Z,15.57
2018-06-04T13:16:45.440Z,16.90
2018-06-04T13:19:14.149Z,14.70
2018-06-04T13:21:42.843Z,14.93
2018-06-04T13:24:11.444Z,15.93
2018-06-04T13:26:40.244Z,13.97
2018-06-04T13:29:08.833Z,15.87
2018-06-04T13:31:38.203Z,16.43
2018-06-04T13:34:07.191Z,14.77
2018-06-04T13:36:35.872Z,15.47
2018-06-04T13:39:06.957Z,15.47
2018-06-04T13:41:35.615Z,15.20
2018-06-04T13:44:07.677Z,14.93
2018-06-04T13:46:36.313Z,16.63
2018-06-04T13:49:04.923Z,14.63
2018-06-04T13:51:33.622Z,15.33
2018-06-04T13:54:02.297Z,16.43
2018-06-04T13:56:30.934Z,16.73
2018-06-04T13:58:59.619Z,17.87
2018-06-04T14:01:28.328Z,17.37
2018-06-04T14:03:57.035Z,15.90
2018-06-04T14:06:25.638Z,15.53
2018-06-04T14:08:54.304Z,15.30
2018-06-04T14:11:23.532Z,15.73
2018-06-04T14:13:52.185Z,14.00
2018-06-04T14:16:20.807Z,16.33
2018-06-04T14:18:49.483Z,16.80
2018-06-04T14:21:19.309Z,16.07
2018-06-04T14:23:48.480Z,17.13
2018-06-04T14:26:17.200Z,15.87
2018-06-04T14:28:46.453Z,15.50
2018-06-04T14:31:15.748Z,16.30
2018-06-04T14:33:44.435Z,15.53
2018-06-04T14:36:13.140Z,16.37
2018-06-04T14:38:45.920Z,17.60
2018-06-04T14:41:14.574Z,16.10
2018-06-04T14:43:43.372Z,17.20
2018-06-04T14:46:12.082Z,19.00
2018-06-04T14:48:41.494Z,20.23
2018-06-04T14:51:10.870Z,22.53
2018-06-04T14:53:40.469Z,22.33
2018-06-04T14:56:09.180Z,22.40
2018-06-04T14:58:37.887Z,24.67
2018-06-04T15:01:06.734Z,23.33
2018-06-04T15:03:35.424Z,23.63
2018-06-04T15:06:04.120Z,21.57
2018-06-04T15:08:32.716Z,22.80
2018-06-04T15:11:01.929Z,22.93
2018-06-04T15:13:51.768Z,21.83
2018-06-04T15:16:20.620Z,23.37
2018-06-04T15:18:49.264Z,23.73
2018-06-04T15:21:17.985Z,24.23
2018-06-04T15:23:46.623Z,23.37
2018-06-04T15:26:15.261Z,20.57
2018-06-04T15:28:43.945Z,23.23
2018-06-04T15:31:12.584Z,22.17
2018-06-04T15:33:41.367Z,21.77
2018-06-04T15:36:10.068Z,20.93
2018-06-04T15:38:38.669Z,18.57
2018-06-04T15:41:11.331Z,19.07
2018-06-04T15:43:40.008Z,18.70
2018-06-04T15:46:08.676Z,18.43
2018-06-04T15:48:37.836Z,16.97
2018-06-04T15:51:06.907Z,16.73
2018-06-04T15:53:35.483Z,18.27
2018-06-04T15:56:04.185Z,19.83
2018-06-04T15:58:32.853Z,18.10
2018-06-04T16:01:03.625Z,17.73
2018-06-04T16:03:32.629Z,18.47
2018-06-04T16:06:04.081Z,18.13
2018-06-04T16:08:34.636Z,15.87
2018-06-04T16:11:03.339Z,15.50
2018-06-04T16:13:31.948Z,14.93
2018-06-04T16:16:01.233Z,17.30
2018-06-04T16:18:29.908Z,18.97
2018-06-04T16:20:59.590Z,18.47
2018-06-04T16:23:28.230Z,17.70
2018-06-04T16:25:56.902Z,16.90
2018-06-04T16:28:25.505Z,17.70
2018-06-04T16:30:56.780Z,17.30
2018-06-04T16:33:25.389Z,16.40
2018-06-04T16:35:54.563Z,15.10
2018-06-04T16:38:23.410Z,16.77
2018-06-04T16:40:52.065Z,18.13
2018-06-04T16:43:20.733Z,17.03
2018-06-04T16:45:49.576Z,16.53
2018-06-04T16:48:18.340Z,15.13
2018-06-04T16:50:47.160Z,14.90
2018-06-04T16:53:15.796Z,15.33
2018-06-04T16:55:45.259Z,15.17
2018-06-04T16:58:13.999Z,15.00
2018-06-04T17:00:42.710Z,14.70
2018-06-04T17:03:11.326Z,13.13
2018-06-04T17:05:39.936Z,12.97
2018-06-04T17:08:08.702Z,14.27
2018-06-04T17:10:38.660Z,13.37
2018-06-04T17:13:07.470Z,14.13
2018-06-04T17:15:36.098Z,15.13
2018-06-04T17:18:05.403Z,14.47
2018-06-04T17:20:34.126Z,14.90
2018-06-04T17:23:02.815Z,13.50
2018-06-04T17:25:31.705Z,12.90
2018-06-04T17:28:00.293Z,12.77
2018-06-04T17:30:28.998Z,12.70
2018-06-04T17:32:57.711Z,12.90
2018-06-04T17:35:26.314Z,14.00
2018-06-04T17:37:55.124Z,13.30
2018-06-04T17:40:26.998Z,12.30
2018-06-04T17:42:55.689Z,13.10
2018-06-04T17:45:24.470Z,12.07
2018-06-04T17:47:57.738Z,11.80
2018-06-04T17:50:26.423Z,10.87
2018-06-04T17:52:55.231Z,10.53
2018-06-04T17:55:23.842Z,10.87
2018-06-04T17:57:53.757Z,10.80
2018-06-04T18:00:23.244Z,9.90
2018-06-04T18:02:52.739Z,11.10
2018-06-04T18:05:21.423Z,10.70
2018-06-04T18:07:50.083Z,9.77
2018-06-04T18:10:18.899Z,9.23
2018-06-04T18:12:47.928Z,9.90
2018-06-04T18:15:16.780Z,8.40
2018-06-04T18:17:45.485Z,8.00
2018-06-04T18:20:15.405Z,8.83
2018-06-04T18:22:44.517Z,9.30
2018-06-04T18:25:13.272Z,8.37
2018-06-04T18:27:42.202Z,8.97
2018-06-04T18:30:24.053Z,9.53
2018-06-04T18:32:52.671Z,8.40
2018-06-04T18:35:21.681Z,8.93
2018-06-04T18:38:03.133Z,9.07
2018-06-04T18:40:31.904Z,8.70
2018-06-04T18:43:00.698Z,8.57
2018-06-04T18:45:29.414Z,8.53
2018-06-04T18:47:58.317Z,8.07
2018-06-04T18:50:27.117Z,8.33
2018-06-04T18:52:55.797Z,9.33
2018-06-04T18:55:24.414Z,8.37
2018-06-04T18:57:53.324Z,9.30
2018-06-04T19:00:23.971Z,8.37
2018-06-04T19:02:52.898Z,9.03
2018-06-04T19:05:21.676Z,9.40
2018-06-04T19:07:50.652Z,9.03
2018-06-04T19:10:20.008Z,9.97
2018-06-04T19:12:49.703Z,10.20
2018-06-04T19:15:18.670Z,10.63
2018-06-04T19:17:47.962Z,11.50
2018-06-04T19:20:17.426Z,10.83
2018-06-04T19:22:46.283Z,11.13
2018-06-04T19:25:15.359Z,11.97
2018-06-04T19:27:45.076Z,12.03
2018-06-04T19:30:14.125Z,11.63
2018-06-04T19:32:44.215Z,10.40
2018-06-04T19:35:13.135Z,12.40
2018-06-04T19:37:41.763Z,11.83
2018-06-04T19:40:14.541Z,13.30
2018-06-04T19:42:43.312Z,14.67
2018-06-04T19:45:12.845Z,15.20
2018-06-04T19:47:42.561Z,16.10
2018-06-04T19:50:11.262Z,16.23
2018-06-04T19:52:40.043Z,17.77
2018-06-04T19:55:08.654Z,17.63
2018-06-04T19:57:37.821Z,17.80
2018-06-04T20:00:06.630Z,17.50
2018-06-04T20:02:36.979Z,17.87
2018-06-04T20:05:05.734Z,17.83
2018-06-04T20:07:35.317Z,16.03
2018-06-04T20:10:04.234Z,17.87
2018-06-04T20:12:32.877Z,18.57
2018-06-04T20:15:01.802Z,17.03
2018-06-04T20:17:31.693Z,17.67
2018-06-04T20:20:00.496Z,18.03
2018-06-04T20:22:29.352Z,16.30
2018-06-04T20:24:58.194Z,18.23
2018-06-04T20:27:26.944Z,17.47
2018-06-04T20:29:56.671Z,17.27
2018-06-04T20:32:26.071Z,16.93
2018-06-04T20:34:54.717Z,18.27
2018-06-04T20:37:23.976Z,18.10
2018-06-04T20:39:52.661Z,17.53
2018-06-04T20:42:21.534Z,17.70
2018-06-04T20:44:50.586Z,19.00
2018-06-04T20:47:19.382Z,18.03
2018-06-04T20:49:48.192Z,17.63
2018-06-04T20:52:16.965Z,17.37
2018-06-04T20:54:49.247Z,18.17
2018-06-04T20:57:17.906Z,17.17
2018-06-04T20:59:46.670Z,17.47
2018-06-04T21:02:15.512Z,15.73
2018-06-04T21:04:44.242Z,17.97
2018-06-04T21:07:13.997Z,16.77
2018-06-04T21:09:43.088Z,18.30
2018-06-04T21:12:11.967Z,16.83
2018-06-04T21:14:41.117Z,18.57
2018-06-04T21:17:09.985Z,18.10
2018-06-04T21:19:39.065Z,18.50
2018-06-04T21:22:08.023Z,18.00
2018-06-04T21:24:36.972Z,18.07
2018-06-04T21:27:05.800Z,18.20
2018-06-04T21:29:36.014Z,17.77
2018-06-04T21:32:04.768Z,18.00
2018-06-04T21:34:33.542Z,18.77
2018-06-04T21:37:02.175Z,18.67
2018-06-04T21:39:30.986Z,18.73
2018-06-04T21:42:00.630Z,18.90
2018-06-04T21:44:29.416Z,18.37
2018-06-04T21:46:58.602Z,17.90
2018-06-04T21:49:34.588Z,17.93
2018-06-04T21:52:03.549Z,20.07
2018-06-04T21:54:32.901Z,19.93
2018-06-04T21:57:02.222Z,19.67
2018-06-04T21:59:31.790Z,20.13
2018-06-04T22:02:00.558Z,21.13
2018-06-04T22:04:29.205Z,19.17
2018-06-04T22:06:58.586Z,21.40
2018-06-04T22:09:28.014Z,20.43
2018-06-04T22:11:56.775Z,21.13
2018-06-04T22:14:25.661Z,21.67
2018-06-04T22:16:54.631Z,21.00
2018-06-04T22:19:23.503Z,21.50
2018-06-04T22:21:52.100Z,21.97
2018-06-04T22:24:20.791Z,20.93
2018-06-04T22:26:49.398Z,22.67
2018-06-04T22:29:17.990Z,22.23
2018-06-04T22:31:46.684Z,22.47
2018-06-04T22:34:17.484Z,23.37
2018-06-04T22:36:46.162Z,23.23
2018-06-04T22:39:14.874Z,22.80
2018-06-04T22:41:43.541Z,21.87
2018-06-04T22:44:12.870Z,22.80
2018-06-04T22:46:41.534Z,23.07
2018-06-04T22:49:10.226Z,24.63
2018-06-04T22:51:38.919Z,22.97
2018-06-04T22:54:07.606Z,24.50
2018-06-04T22:56:36.974Z,25.17
2018-06-04T22:59:07.337Z,25.20
2018-06-04T23:01:35.917Z,25.03
2018-06-04T23:04:04.579Z,24.80
2018-06-04T23:06:33.256Z,24.07
2018-06-04T23:09:01.954Z,25.63
2018-06-04T23:11:30.597Z,26.30
2018-06-04T23:13:59.187Z,26.03
2018-06-04T23:16:27.789Z,26.97
2018-06-04T23:18:56.501Z,26.50
2018-06-04T23:21:25.178Z,28.27
2018-06-04T23:23:53.900Z,27.77
2018-06-04T23:26:23.170Z,26.53
2018-06-04T23:28:51.969Z,27.20
2018-06-04T23:31:20.649Z,26.03
2018-06-04T23:33:49.323Z,27.97
2018-06-04T23:36:18.013Z,28.37
2018-06-04T23:38:46.693Z,29.67
2018-06-04T23:41:15.293Z,29.67
2018-06-04T23:43:43.961Z,29.30
2018-06-04T23:46:12.656Z,30.70
2018-06-04T23:48:41.254Z,29.83
2018-06-04T23:51:09.933Z,30.00
2018-06-04T23:53:38.629Z,30.83
2018-06-04T23:56:07.297Z,30.20
2018-06-04T23:58:35.995Z,30.93
